createdAt,value
2019-01-12T00:02:48.864Z,-2.00
2019-01-12T00:08:50.256Z,-2.00
2019-01-12T00:14:51.661Z,-1.90
2019-01-12T00:20:53.076Z,-1.80
2019-01-12T00:26:54.485Z,-1.80
2019-01-12T00:32:55.932Z,-1.80
2019-01-12T00:38:57.335Z,-1.80
2019-01-12T00:44:58.696Z,-1.70
2019-01-12T00:51:00.209Z,-1.70
2019-01-12T00:57:02.500Z,-1.60
2019-01-12T01:03:05.063Z,-1.50
2019-01-12T01:09:07.572Z,-1.50
2019-01-12T01:15:09.980Z,-1.50
2019-01-12T01:21:11.292Z,-1.50
2019-01-12T01:27:12.701Z,-1.50
2019-01-12T01:33:14.144Z,-1.40
2019-01-12T01:39:15.425Z,-1.40
2019-01-12T01:45:16.880Z,-1.40
2019-01-12T01:51:18.935Z,-1.40
2019-01-12T01:57:21.265Z,-1.30
2019-01-12T02:03:22.776Z,-1.30
2019-01-12T02:09:24.128Z,-1.20
2019-01-12T02:15:25.492Z,-1.20
2019-01-12T02:21:26.900Z,-1.20
2019-01-12T02:27:28.360Z,-1.20
2019-01-12T02:33:29.792Z,-1.10
2019-01-12T02:39:31.184Z,-1.10
2019-01-12T02:45:32.872Z,-1.00
2019-01-12T02:51:34.783Z,-1.00
2019-01-12T02:57:37.212Z,-1.00
2019-01-12T03:03:38.652Z,-1.00
2019-01-12T03:09:39.960Z,-0.90
2019-01-12T03:15:41.265Z,-0.90
2019-01-12T03:21:44.480Z,-1.00
2019-01-12T03:27:45.938Z,-0.90
2019-01-12T03:33:47.344Z,-0.90
2019-01-12T03:39:48.649Z,-0.80
2019-01-12T03:45:50.010Z,-0.90
2019-01-12T03:51:51.569Z,-0.90
2019-01-12T03:57:53.904Z,-0.80
2019-01-12T04:03:55.368Z,-0.80
2019-01-12T04:09:56.729Z,-0.70
2019-01-12T04:15:58.140Z,-0.70
2019-01-12T04:21:59.452Z,-0.70
2019-01-12T04:28:00.856Z,-0.60
2019-01-12T04:34:02.196Z,-0.60
2019-01-12T04:40:07.400Z,-0.60
2019-01-12T04:46:09.185Z,-0.50
2019-01-12T04:52:10.677Z,-0.50
2019-01-12T04:58:13.059Z,-0.50
2019-01-12T05:04:14.641Z,-0.50
2019-01-12T05:10:16.045Z,-0.40
2019-01-12T05:16:17.454Z,-0.40
2019-01-12T05:22:19.254Z,-0.30
2019-01-12T05:28:20.668Z,-0.30
2019-01-12T05:34:22.096Z,-0.30
2019-01-12T05:40:23.410Z,-0.30
2019-01-12T05:46:24.813Z,-0.20
2019-01-12T05:52:26.332Z,-0.20
2019-01-12T05:58:28.668Z,-0.20
2019-01-12T06:04:30.232Z,-0.10
2019-01-12T06:10:32.606Z,-0.10
2019-01-12T06:16:34.008Z,-0.10
2019-01-12T06:22:35.461Z,0.00
2019-01-12T06:28:36.872Z,0.10
2019-01-12T06:34:38.303Z,0.10
2019-01-12T06:40:39.615Z,0.20
2019-01-12T06:46:41.348Z,0.20
2019-01-12T06:52:42.809Z,0.30
2019-01-12T06:58:44.973Z,0.30
2019-01-12T07:04:46.553Z,0.30
2019-01-12T07:10:47.961Z,0.30
2019-01-12T07:16:49.367Z,0.40
2019-01-12T07:22:50.783Z,0.40
2019-01-12T07:28:52.184Z,0.40
2019-01-12T07:34:53.526Z,0.50
2019-01-12T07:40:54.924Z,0.60
2019-01-12T07:46:56.412Z,0.70
2019-01-12T07:52:57.975Z,0.70
2019-01-12T07:59:00.411Z,0.90
2019-01-12T08:05:01.989Z,1.00
2019-01-12T08:11:03.551Z,1.10
2019-01-12T08:17:04.977Z,1.20
2019-01-12T08:23:07.533Z,1.20
2019-01-12T08:29:08.992Z,1.20
2019-01-12T08:35:10.437Z,1.30
2019-01-12T08:41:11.844Z,1.50
2019-01-12T08:47:13.228Z,1.60
2019-01-12T08:53:14.748Z,1.80
2019-01-12T08:59:17.033Z,2.20
2019-01-12T09:05:18.620Z,2.30
2019-01-12T09:11:19.941Z,2.50
2019-01-12T09:17:21.352Z,2.60
2019-01-12T09:23:22.687Z,2.50
2019-01-12T09:29:24.140Z,2.60
2019-01-12T09:35:25.488Z,2.60
2019-01-12T09:41:26.884Z,2.50
2019-01-12T09:47:28.280Z,2.60
2019-01-12T09:53:29.784Z,2.60
2019-01-12T09:59:32.000Z,2.90
2019-01-12T10:05:33.496Z,3.30
2019-01-12T10:11:35.000Z,3.60
2019-01-12T10:17:36.280Z,3.60
2019-01-12T10:23:37.748Z,3.20
2019-01-12T10:29:39.317Z,3.10
2019-01-12T10:35:40.761Z,2.80
2019-01-12T10:41:42.168Z,2.80
2019-01-12T10:47:43.677Z,3.00
2019-01-12T10:53:45.113Z,3.40
2019-01-12T10:59:47.406Z,3.40
2019-01-12T11:05:48.916Z,3.50
2019-01-12T11:11:50.320Z,3.60
2019-01-12T11:17:51.732Z,3.60
2019-01-12T11:23:53.140Z,3.60
2019-01-12T11:29:54.562Z,3.50
2019-01-12T11:35:55.961Z,3.50
2019-01-12T11:41:57.379Z,3.30
2019-01-12T11:47:58.844Z,3.10
2019-01-12T11:54:00.419Z,2.80
2019-01-12T12:00:17.840Z,2.60
2019-01-12T12:06:19.382Z,2.50
2019-01-12T12:12:20.832Z,2.50
2019-01-12T12:18:22.213Z,2.60
2019-01-12T12:24:23.621Z,2.70
2019-01-12T12:30:26.884Z,2.70
2019-01-12T12:36:28.242Z,2.70
2019-01-12T12:42:29.640Z,2.60
2019-01-12T12:48:31.008Z,2.60
2019-01-12T12:54:32.509Z,2.70
2019-01-12T13:00:34.024Z,2.80
2019-01-12T13:06:35.556Z,2.60
2019-01-12T13:12:38.055Z,2.50
2019-01-12T13:18:39.438Z,2.30
2019-01-12T13:24:40.740Z,2.30
2019-01-12T13:30:42.113Z,2.30
2019-01-12T13:36:43.588Z,2.20
2019-01-12T13:42:44.983Z,2.10
2019-01-12T13:48:46.877Z,2.20
2019-01-12T13:54:48.309Z,2.10
2019-01-12T14:00:50.732Z,2.10
2019-01-12T14:06:52.232Z,2.10
2019-01-12T14:12:53.616Z,2.20
2019-01-12T14:18:55.048Z,2.10
2019-01-12T14:24:56.504Z,2.20
2019-01-12T14:30:57.872Z,2.10
2019-01-12T14:36:59.304Z,2.10
2019-01-12T14:43:00.735Z,2.20
2019-01-12T14:49:02.197Z,2.20
2019-01-12T14:55:07.745Z,2.20
2019-01-12T15:01:10.037Z,2.10
2019-01-12T15:07:11.554Z,2.20
2019-01-12T15:13:12.909Z,2.20
2019-01-12T15:19:14.291Z,2.20
2019-01-12T15:25:15.649Z,2.20
2019-01-12T15:31:19.319Z,2.20
2019-01-12T15:37:20.388Z,2.20
2019-01-12T15:43:21.812Z,2.20
2019-01-12T15:49:23.192Z,2.20
2019-01-12T15:55:26.232Z,2.30
2019-01-12T16:01:28.556Z,2.30
2019-01-12T16:07:30.100Z,2.20
2019-01-12T16:13:31.485Z,2.20
2019-01-12T16:19:32.885Z,2.20
2019-01-12T16:25:34.264Z,2.20
2019-01-12T16:31:35.737Z,2.20
2019-01-12T16:37:37.192Z,2.20
2019-01-12T16:43:38.596Z,2.20
2019-01-12T16:49:40.062Z,2.30
2019-01-12T16:55:41.552Z,2.30
2019-01-12T17:01:44.124Z,2.30
2019-01-12T17:07:45.636Z,2.40
2019-01-12T17:13:47.036Z,2.40
2019-01-12T17:19:48.452Z,2.40
2019-01-12T17:25:49.798Z,2.40
2019-01-12T17:31:52.358Z,2.40
2019-01-12T17:37:53.772Z,2.40
2019-01-12T17:43:55.181Z,2.40
2019-01-12T17:49:56.677Z,2.50
2019-01-12T17:55:58.198Z,2.50
2019-01-12T18:02:00.564Z,2.60
2019-01-12T18:08:02.152Z,2.60
2019-01-12T18:14:03.532Z,2.70
2019-01-12T18:20:08.590Z,2.70
2019-01-12T18:26:10.001Z,2.80
2019-01-12T18:32:11.432Z,2.80
2019-01-12T18:38:12.768Z,2.80
2019-01-12T18:44:14.052Z,2.80
2019-01-12T18:50:19.244Z,2.80
2019-01-12T18:56:20.768Z,2.80
2019-01-12T19:02:23.397Z,2.80
2019-01-12T19:08:24.965Z,2.70
2019-01-12T19:14:26.277Z,2.80
2019-01-12T19:20:27.700Z,2.70
2019-01-12T19:26:29.173Z,2.80
2019-01-12T19:32:30.627Z,2.70
2019-01-12T19:38:31.973Z,2.70
2019-01-12T19:44:33.292Z,2.70
2019-01-12T19:50:34.776Z,2.70
2019-01-12T19:56:36.264Z,2.80
2019-01-12T20:02:38.444Z,2.70
2019-01-12T20:08:39.955Z,2.70
2019-01-12T20:14:41.272Z,2.70
2019-01-12T20:20:42.732Z,2.70
2019-01-12T20:26:44.064Z,2.70
2019-01-12T20:33:06.055Z,2.70
2019-01-12T20:39:30.282Z,2.70
2019-01-12T20:45:38.456Z,2.70
2019-01-12T20:51:55.589Z,2.70
2019-01-12T20:58:03.679Z,2.70
2019-01-12T21:04:31.304Z,2.70
2019-01-12T21:10:54.131Z,2.70
2019-01-12T21:16:55.653Z,2.70
2019-01-12T21:22:57.076Z,2.80
2019-01-12T21:28:58.357Z,2.70
2019-01-12T21:34:59.737Z,2.80
2019-01-12T21:41:01.101Z,2.80
2019-01-12T21:47:02.496Z,2.70
2019-01-12T21:53:03.929Z,2.70
2019-01-12T21:59:06.360Z,2.60
2019-01-12T22:05:09.669Z,2.40
2019-01-12T22:11:11.276Z,2.20
2019-01-12T22:17:12.592Z,2.10
2019-01-12T22:23:13.981Z,2.00
2019-01-12T22:29:15.362Z,2.00
2019-01-12T22:35:16.825Z,1.90
2019-01-12T22:41:18.343Z,2.00
2019-01-12T22:47:19.728Z,2.00
2019-01-12T22:53:21.107Z,2.00
2019-01-12T22:59:22.577Z,2.00
2019-01-12T23:05:24.924Z,2.00
2019-01-12T23:11:26.432Z,2.10
2019-01-12T23:17:27.887Z,2.10
2019-01-12T23:23:29.257Z,2.10
2019-01-12T23:29:30.634Z,2.00
2019-01-12T23:35:32.096Z,2.00
2019-01-12T23:41:33.594Z,2.00
2019-01-12T23:47:34.976Z,1.90
2019-01-12T23:53:36.297Z,1.90
2019-01-12T23:59:37.801Z,1.80
